createdAt,value
2022-12-13T00:00:47.347Z,5.18
2022-12-13T00:03:14.044Z,4.30
2022-12-13T00:05:45.022Z,4.55
2022-12-13T00:08:11.836Z,4.40
2022-12-13T00:10:38.541Z,4.20
2022-12-13T00:13:05.290Z,4.80
2022-12-13T00:15:31.928Z,4.25
2022-12-13T00:17:58.570Z,4.38
2022-12-13T00:20:25.225Z,4.50
2022-12-13T00:22:52.605Z,5.95
2022-12-13T00:25:21.384Z,6.75
2022-12-13T00:27:48.425Z,6.22
2022-12-13T00:30:15.125Z,7.28
2022-12-13T00:32:41.788Z,5.90
2022-12-13T00:35:08.760Z,8.93
2022-12-13T00:37:35.490Z,6.32
2022-12-13T00:40:02.221Z,4.88
2022-12-13T00:42:28.955Z,4.47
2022-12-13T00:44:55.884Z,5.80
2022-12-13T00:47:24.052Z,4.85
2022-12-13T00:49:50.690Z,6.28
2022-12-13T00:52:17.358Z,4.80
2022-12-13T00:54:44.052Z,4.30
2022-12-13T00:57:10.957Z,5.25
2022-12-13T00:59:37.614Z,4.57
2022-12-13T01:02:04.330Z,4.40
2022-12-13T01:04:31.024Z,4.63
2022-12-13T01:06:57.703Z,4.72
2022-12-13T01:09:27.527Z,4.15
2022-12-13T01:11:59.485Z,4.00
2022-12-13T01:14:27.187Z,4.10
2022-12-13T01:16:55.805Z,4.95
2022-12-13T01:19:23.885Z,4.18
2022-12-13T01:21:54.688Z,4.03
2022-12-13T01:24:22.961Z,3.70
2022-12-13T01:26:49.706Z,4.65
2022-12-13T01:29:17.290Z,4.63
2022-12-13T01:31:44.014Z,3.47
2022-12-13T01:34:15.461Z,4.65
2022-12-13T01:36:44.080Z,4.60
2022-12-13T01:39:15.364Z,4.13
2022-12-13T01:41:44.228Z,3.83
2022-12-13T01:44:48.147Z,5.18
2022-12-13T01:47:15.375Z,3.88
2022-12-13T01:49:42.126Z,3.80
2022-12-13T01:52:12.552Z,4.70
2022-12-13T01:54:46.608Z,3.88
2022-12-13T01:57:16.052Z,4.20
2022-12-13T01:59:44.179Z,4.03
2022-12-13T02:02:13.123Z,3.75
2022-12-13T02:04:44.866Z,3.83
2022-12-13T02:07:23.296Z,3.92
2022-12-13T02:09:56.732Z,3.90
2022-12-13T02:12:30.353Z,4.32
2022-12-13T02:15:05.893Z,3.67
2022-12-13T02:17:35.598Z,4.10
2022-12-13T02:20:37.663Z,4.28
2022-12-13T02:23:10.259Z,4.65
2022-12-13T02:25:55.675Z,4.70
2022-12-13T02:31:21.511Z,3.92
2022-12-13T02:34:08.700Z,3.80
2022-12-13T02:36:55.314Z,4.38
2022-12-13T02:39:30.234Z,4.40
2022-12-13T02:42:21.208Z,4.40
2022-12-13T02:44:55.571Z,3.67
2022-12-13T02:47:23.729Z,3.60
2022-12-13T02:49:54.509Z,4.38
2022-12-13T02:52:25.145Z,3.67
2022-12-13T02:54:54.393Z,3.65
2022-12-13T02:57:35.982Z,4.07
2022-12-13T03:00:16.934Z,3.78
2022-12-13T03:02:58.946Z,4.07
2022-12-13T03:05:51.117Z,3.92
2022-12-13T03:08:36.134Z,3.92
2022-12-13T03:11:06.761Z,3.67
2022-12-13T03:13:49.001Z,4.30
2022-12-13T03:16:38.468Z,3.70
2022-12-13T03:19:08.136Z,4.03
2022-12-13T03:21:49.659Z,4.07
2022-12-13T03:24:18.146Z,3.90
2022-12-13T03:26:45.675Z,3.50
2022-12-13T03:29:13.467Z,3.80
2022-12-13T03:31:50.813Z,3.80
2022-12-13T03:34:22.991Z,4.18
2022-12-13T03:36:53.371Z,5.15
2022-12-13T03:39:20.366Z,3.72
2022-12-13T03:41:47.113Z,4.13
2022-12-13T03:44:13.981Z,3.88
2022-12-13T03:46:40.670Z,3.75
2022-12-13T03:49:07.529Z,4.45
2022-12-13T03:51:34.622Z,4.38
2022-12-13T03:54:01.317Z,3.70
2022-12-13T03:56:28.171Z,4.10
2022-12-13T03:58:54.917Z,3.63
2022-12-13T04:01:22.276Z,4.03
2022-12-13T04:03:49.166Z,4.40
2022-12-13T04:06:22.502Z,3.92
2022-12-13T04:08:51.368Z,3.50
2022-12-13T04:11:42.783Z,3.63
2022-12-13T04:14:11.960Z,3.90
2022-12-13T04:16:38.864Z,4.25
2022-12-13T04:19:05.626Z,3.83
2022-12-13T04:21:32.278Z,3.83
2022-12-13T04:24:00.725Z,3.60
2022-12-13T04:26:28.527Z,3.70
2022-12-13T04:28:56.541Z,3.72
2022-12-13T04:31:23.785Z,3.85
2022-12-13T04:33:51.376Z,3.45
2022-12-13T04:36:30.949Z,3.80
2022-12-13T04:39:03.674Z,3.50
2022-12-13T04:41:49.493Z,3.55
2022-12-13T04:44:28.207Z,4.63
2022-12-13T04:47:00.781Z,4.20
2022-12-13T04:49:32.206Z,4.50
2022-12-13T04:52:01.513Z,3.78
2022-12-13T04:54:36.202Z,3.88
2022-12-13T04:57:05.410Z,3.85
2022-12-13T04:59:32.067Z,3.75
2022-12-13T05:01:58.762Z,3.95
2022-12-13T05:04:32.086Z,3.60
2022-12-13T05:06:59.554Z,4.13
2022-12-13T05:09:26.321Z,3.65
2022-12-13T05:11:52.959Z,3.78
2022-12-13T05:14:31.660Z,3.95
2022-12-13T05:16:59.493Z,3.55
2022-12-13T05:19:30.578Z,3.78
2022-12-13T05:22:01.872Z,3.70
2022-12-13T05:24:30.672Z,3.40
2022-12-13T05:26:57.946Z,3.72
2022-12-13T05:29:24.607Z,3.50
2022-12-13T05:31:51.384Z,4.05
2022-12-13T05:34:18.974Z,3.92
2022-12-13T05:36:45.611Z,3.85
2022-12-13T05:39:28.383Z,4.38
2022-12-13T05:42:01.110Z,5.07
2022-12-13T05:44:30.401Z,4.07
2022-12-13T05:46:57.050Z,4.18
2022-12-13T05:49:23.792Z,6.55
2022-12-13T05:51:50.612Z,8.52
2022-12-13T05:54:17.524Z,13.05
2022-12-13T05:56:44.315Z,21.65
2022-12-13T05:59:11.356Z,16.85
2022-12-13T06:01:38.050Z,15.95
2022-12-13T06:04:11.041Z,14.88
2022-12-13T06:06:37.840Z,13.30
2022-12-13T06:09:04.519Z,13.10
2022-12-13T06:11:32.568Z,13.27
2022-12-13T06:14:00.724Z,15.73
2022-12-13T06:16:28.386Z,11.18
2022-12-13T06:19:03.147Z,11.93
2022-12-13T06:21:44.173Z,12.95
2022-12-13T06:24:17.765Z,12.30
2022-12-13T06:26:44.988Z,11.07
2022-12-13T06:29:12.359Z,9.38
2022-12-13T06:31:39.044Z,11.60
2022-12-13T06:34:14.271Z,8.00
2022-12-13T06:36:42.889Z,10.50
2022-12-13T06:39:09.670Z,9.07
2022-12-13T06:41:36.994Z,9.38
2022-12-13T06:44:03.912Z,8.48
2022-12-13T06:46:30.594Z,8.43
2022-12-13T06:48:57.297Z,9.05
2022-12-13T06:51:32.305Z,7.72
2022-12-13T06:54:01.178Z,7.32
2022-12-13T06:56:28.536Z,8.80
2022-12-13T06:59:01.410Z,9.02
2022-12-13T07:01:37.157Z,8.20
2022-12-13T07:04:05.886Z,10.65
2022-12-13T07:06:52.648Z,9.25
2022-12-13T07:09:19.351Z,9.50
2022-12-13T07:11:51.967Z,8.60
2022-12-13T07:14:19.423Z,9.75
2022-12-13T07:16:46.196Z,8.70
2022-12-13T07:19:23.359Z,9.40
2022-12-13T07:21:52.092Z,11.05
2022-12-13T07:24:19.095Z,9.50
2022-12-13T07:26:45.784Z,10.35
2022-12-13T07:29:12.484Z,10.90
2022-12-13T07:31:39.264Z,11.00
2022-12-13T07:34:06.113Z,11.98
2022-12-13T07:36:32.841Z,11.90
2022-12-13T07:38:59.622Z,9.07
2022-12-13T07:41:27.179Z,8.23
2022-12-13T07:43:55.840Z,9.52
2022-12-13T07:46:32.475Z,8.50
2022-12-13T07:49:04.653Z,6.97
2022-12-13T07:51:34.831Z,7.68
2022-12-13T07:54:06.475Z,7.78
2022-12-13T07:56:34.505Z,9.07
2022-12-13T07:59:01.205Z,7.82
2022-12-13T08:01:28.546Z,9.52
2022-12-13T08:03:55.305Z,8.55
2022-12-13T08:06:22.017Z,8.60
2022-12-13T08:08:51.156Z,7.55
2022-12-13T08:11:18.144Z,7.32
2022-12-13T08:13:44.868Z,7.55
2022-12-13T08:16:27.350Z,7.13
2022-12-13T08:19:01.077Z,7.07
2022-12-13T08:24:20.465Z,9.10
2022-12-13T08:26:47.250Z,6.28
2022-12-13T08:29:22.869Z,6.10
2022-12-13T08:32:08.523Z,7.45
2022-12-13T08:34:35.481Z,5.70
2022-12-13T08:37:03.984Z,6.95
2022-12-13T08:39:36.996Z,7.85
2022-12-13T08:42:15.214Z,6.07
2022-12-13T08:44:52.464Z,5.22
2022-12-13T08:47:26.428Z,7.15
2022-12-13T08:49:55.021Z,7.97
2022-12-13T08:52:23.769Z,6.82
2022-12-13T08:54:51.065Z,5.97
2022-12-13T08:57:17.839Z,6.60
2022-12-13T08:59:44.969Z,6.85
2022-12-13T09:02:13.635Z,5.95
2022-12-13T09:04:40.424Z,5.57
2022-12-13T09:07:07.084Z,5.25
2022-12-13T09:09:33.741Z,6.25
2022-12-13T09:12:00.381Z,6.55
2022-12-13T09:14:34.152Z,5.65
2022-12-13T09:17:03.528Z,4.83
2022-12-13T09:19:37.255Z,6.78
2022-12-13T09:22:05.333Z,6.45
2022-12-13T09:24:36.775Z,6.65
2022-12-13T09:27:09.754Z,7.97
2022-12-13T09:29:38.427Z,8.52
2022-12-13T09:32:05.956Z,9.27
2022-12-13T09:34:36.059Z,9.95
2022-12-13T09:37:02.834Z,12.35
2022-12-13T09:39:29.698Z,12.73
2022-12-13T09:42:01.077Z,10.70
2022-12-13T09:44:44.070Z,9.98
2022-12-13T09:47:23.087Z,8.55
2022-12-13T09:49:53.801Z,8.45
2022-12-13T09:52:23.965Z,11.48
2022-12-13T09:54:55.963Z,8.10
2022-12-13T09:57:40.978Z,11.15
2022-12-13T10:00:12.940Z,7.85
2022-12-13T10:02:58.608Z,10.82
2022-12-13T10:05:34.387Z,8.85
2022-12-13T10:08:16.504Z,10.38
2022-12-13T10:10:44.064Z,10.27
2022-12-13T10:13:41.843Z,12.93
2022-12-13T10:16:14.608Z,9.52
2022-12-13T10:18:50.424Z,8.57
2022-12-13T10:21:33.543Z,10.00
2022-12-13T10:24:27.361Z,12.35
2022-12-13T10:26:57.148Z,8.43
2022-12-13T10:29:24.292Z,10.23
2022-12-13T10:31:52.622Z,9.65
2022-12-13T10:34:27.697Z,9.38
2022-12-13T10:39:39.811Z,10.18
2022-12-13T10:44:36.717Z,8.05
2022-12-13T10:47:23.891Z,9.05
2022-12-13T10:49:59.254Z,8.32
2022-12-13T10:52:30.628Z,8.20
2022-12-13T10:55:02.400Z,7.65
2022-12-13T10:57:29.215Z,9.27
2022-12-13T10:59:55.975Z,8.25
2022-12-13T11:02:28.490Z,17.73
2022-12-13T11:04:55.458Z,13.27
2022-12-13T11:07:29.647Z,8.02
2022-12-13T11:09:57.544Z,11.20
2022-12-13T11:12:33.014Z,8.93
2022-12-13T11:15:06.808Z,10.38
2022-12-13T11:17:39.584Z,7.70
2022-12-13T11:20:18.231Z,6.68
2022-12-13T11:22:44.930Z,7.97
2022-12-13T11:25:23.678Z,8.75
2022-12-13T11:28:26.425Z,8.65
2022-12-13T11:31:25.233Z,7.22
2022-12-13T11:33:57.757Z,9.85
2022-12-13T11:36:33.485Z,7.82
2022-12-13T11:39:08.970Z,8.80
2022-12-13T11:41:55.833Z,7.40
2022-12-13T11:45:06.623Z,9.10
2022-12-13T11:47:58.925Z,7.90
2022-12-13T11:50:33.558Z,7.18
2022-12-13T11:53:28.135Z,6.78
2022-12-13T11:56:25.800Z,7.93
2022-12-13T11:59:04.945Z,6.72
2022-12-13T12:01:43.360Z,7.93
2022-12-13T12:04:19.895Z,6.47
2022-12-13T12:06:53.186Z,5.55
2022-12-13T12:09:21.325Z,5.13
2022-12-13T12:11:57.685Z,5.85
2022-12-13T12:14:41.097Z,6.07
2022-12-13T12:17:12.872Z,6.05
2022-12-13T12:19:42.172Z,4.55
2022-12-13T12:22:31.539Z,6.53
2022-12-13T12:25:17.012Z,5.90
2022-12-13T12:27:55.341Z,5.28
2022-12-13T12:30:24.456Z,5.15
2022-12-13T12:32:51.403Z,6.00
2022-12-13T12:35:26.901Z,10.63
2022-12-13T12:38:06.851Z,14.35
2022-12-13T12:43:45.022Z,6.20
2022-12-13T12:46:15.996Z,4.70
2022-12-13T12:49:17.992Z,4.80
2022-12-13T12:52:00.029Z,5.05
2022-12-13T12:54:41.976Z,4.30
2022-12-13T12:57:18.609Z,4.45
2022-12-13T13:00:05.399Z,5.15
2022-12-13T13:03:18.893Z,4.72
2022-12-13T13:05:55.778Z,5.38
2022-12-13T13:08:38.666Z,8.52
2022-12-13T13:11:25.232Z,5.72
2022-12-13T13:14:01.707Z,5.93
2022-12-13T13:16:34.716Z,3.90
2022-12-13T13:19:16.821Z,4.63
2022-12-13T13:21:55.267Z,4.97
2022-12-13T13:24:32.606Z,4.93
2022-12-13T13:27:29.358Z,4.20
2022-12-13T13:30:06.336Z,4.25
2022-12-13T13:32:35.442Z,4.07
2022-12-13T13:35:33.620Z,3.45
2022-12-13T13:38:05.103Z,3.85
2022-12-13T13:40:38.139Z,3.33
2022-12-13T13:43:11.096Z,5.38
2022-12-13T13:45:50.345Z,5.32
2022-12-13T13:48:29.791Z,4.35
2022-12-13T13:51:04.517Z,3.75
2022-12-13T13:53:45.702Z,5.25
2022-12-13T13:56:36.746Z,3.13
2022-12-13T13:59:23.139Z,4.57
2022-12-13T14:02:33.892Z,5.85
2022-12-13T14:05:04.115Z,3.58
2022-12-13T14:07:42.754Z,3.88
2022-12-13T14:10:42.445Z,3.47
2022-12-13T14:13:45.648Z,3.20
2022-12-13T14:16:40.289Z,3.90
2022-12-13T14:19:29.223Z,3.13
2022-12-13T14:22:02.706Z,4.60
2022-12-13T14:24:40.475Z,2.90
2022-12-13T14:27:16.047Z,3.08
2022-12-13T14:29:57.624Z,4.88
2022-12-13T14:32:27.781Z,6.10
2022-12-13T14:40:27.334Z,4.97
2022-12-13T14:42:55.018Z,3.63
2022-12-13T14:45:33.568Z,2.75
2022-12-13T14:48:01.737Z,2.88
2022-12-13T14:50:32.609Z,3.70
2022-12-13T14:53:00.558Z,4.03
2022-12-13T14:55:32.073Z,2.97
2022-12-13T14:58:00.349Z,6.63
2022-12-13T15:00:35.928Z,3.17
2022-12-13T15:03:04.567Z,4.82
2022-12-13T15:05:48.834Z,3.45
2022-12-13T15:08:18.959Z,9.13
2022-12-13T15:10:51.854Z,7.78
2022-12-13T15:13:29.377Z,7.95
2022-12-13T15:16:10.194Z,5.85
2022-12-13T15:18:40.972Z,5.90
2022-12-13T15:21:26.043Z,4.28
2022-12-13T15:23:58.529Z,5.45
2022-12-13T15:26:30.017Z,5.43
2022-12-13T15:29:09.522Z,4.20
2022-12-13T15:31:38.262Z,3.88
2022-12-13T15:34:29.975Z,4.75
2022-12-13T15:37:07.050Z,6.55
2022-12-13T15:39:40.795Z,11.77
2022-12-13T15:42:25.754Z,11.93
2022-12-13T15:44:57.381Z,12.30
2022-12-13T15:47:28.874Z,7.70
2022-12-13T15:49:57.178Z,12.57
2022-12-13T15:52:30.098Z,6.50
2022-12-13T15:55:28.501Z,9.60
2022-12-13T15:57:58.843Z,8.65
2022-12-13T16:00:32.529Z,6.88
2022-12-13T16:03:09.906Z,6.25
2022-12-13T16:05:46.306Z,5.05
2022-12-13T16:08:29.224Z,8.10
2022-12-13T16:10:56.714Z,7.20
2022-12-13T16:13:32.104Z,4.38
2022-12-13T16:16:10.022Z,5.22
2022-12-13T16:18:45.721Z,7.70
2022-12-13T16:21:12.499Z,4.40
2022-12-13T16:23:39.085Z,5.70
2022-12-13T16:26:09.148Z,7.93
2022-12-13T16:28:36.342Z,4.97
2022-12-13T16:31:12.969Z,8.18
2022-12-13T16:33:39.653Z,5.68
2022-12-13T16:36:06.531Z,5.28
2022-12-13T16:38:33.269Z,5.85
2022-12-13T16:41:00.648Z,4.00
2022-12-13T16:43:39.198Z,4.15
2022-12-13T16:47:14.999Z,5.93
2022-12-13T16:48:53.343Z,6.03
2022-12-13T16:51:20.877Z,5.35
2022-12-13T16:53:47.641Z,4.60
2022-12-13T16:56:17.091Z,6.78
2022-12-13T16:58:49.703Z,3.50
2022-12-13T17:01:19.743Z,2.92
2022-12-13T17:03:46.566Z,3.17
2022-12-13T17:06:14.832Z,4.32
2022-12-13T17:08:41.481Z,3.38
2022-12-13T17:11:14.592Z,2.83
2022-12-13T17:13:44.958Z,5.38
2022-12-13T17:16:11.664Z,4.65
2022-12-13T17:18:40.884Z,5.50
2022-12-13T17:21:08.555Z,4.43
2022-12-13T17:23:35.302Z,5.60
2022-12-13T17:26:10.906Z,7.68
2022-12-13T17:28:38.115Z,5.95
2022-12-13T17:31:09.483Z,6.93
2022-12-13T17:33:36.430Z,6.10
2022-12-13T17:36:07.121Z,8.38
2022-12-13T17:38:34.197Z,7.95
2022-12-13T17:41:00.966Z,8.82
2022-12-13T17:43:34.367Z,14.07
2022-12-13T17:46:04.261Z,33.50
2022-12-13T17:48:37.809Z,39.90
2022-12-13T17:51:08.697Z,28.30
2022-12-13T17:53:36.200Z,22.77
2022-12-13T17:56:05.883Z,21.73
2022-12-13T17:58:32.715Z,19.92
2022-12-13T18:01:00.250Z,16.60
2022-12-13T18:03:27.414Z,17.25
2022-12-13T18:05:58.589Z,17.92
2022-12-13T18:08:26.493Z,16.25
2022-12-13T18:11:23.780Z,19.88
2022-12-13T18:13:45.150Z,21.02
2022-12-13T18:16:14.218Z,18.23
2022-12-13T18:18:41.337Z,18.67
2022-12-13T18:21:16.426Z,18.38
2022-12-13T18:23:44.392Z,17.85
2022-12-13T18:26:22.290Z,17.67
2022-12-13T18:28:48.998Z,20.65
2022-12-13T18:31:22.087Z,19.92
2022-12-13T18:33:50.055Z,20.30
2022-12-13T18:36:17.005Z,19.52
2022-12-13T18:38:43.812Z,19.67
2022-12-13T18:41:18.659Z,19.98
2022-12-13T18:43:45.731Z,21.58
2022-12-13T18:46:13.488Z,18.90
2022-12-13T18:48:41.027Z,19.40
2022-12-13T18:51:08.888Z,19.48
2022-12-13T18:53:36.001Z,25.15
2022-12-13T18:56:10.445Z,20.95
2022-12-13T18:58:41.260Z,18.88
2022-12-13T19:01:09.726Z,15.23
2022-12-13T19:03:39.796Z,15.57
2022-12-13T19:06:07.426Z,18.92
2022-12-13T19:08:34.401Z,13.20
2022-12-13T19:11:02.159Z,16.02
2022-12-13T19:13:30.164Z,13.93
2022-12-13T19:15:58.908Z,14.77
2022-12-13T19:18:25.624Z,14.27
2022-12-13T19:20:53.696Z,13.18
2022-12-13T19:23:20.567Z,25.23
2022-12-13T19:25:48.717Z,24.33
2022-12-13T19:28:17.628Z,23.02
2022-12-13T19:30:46.098Z,22.63
2022-12-13T19:33:13.857Z,18.10
2022-12-13T19:35:43.141Z,15.98
2022-12-13T19:38:10.405Z,16.58
2022-12-13T19:40:43.553Z,15.35
2022-12-13T19:43:11.433Z,17.10
2022-12-13T19:45:38.620Z,14.85
2022-12-13T19:48:05.219Z,13.50
2022-12-13T19:50:31.884Z,11.65
2022-12-13T19:52:58.637Z,14.30
2022-12-13T19:55:25.322Z,12.85
2022-12-13T19:57:51.977Z,13.65
2022-12-13T20:00:18.650Z,12.90
2022-12-13T20:02:45.261Z,13.70
2022-12-13T20:05:11.967Z,12.43
2022-12-13T20:07:38.628Z,12.52
2022-12-13T20:10:06.158Z,11.90
2022-12-13T20:12:38.960Z,13.55
2022-12-13T20:15:08.183Z,12.95
2022-12-13T20:17:35.196Z,11.38
2022-12-13T20:20:02.793Z,12.52
2022-12-13T20:22:29.592Z,12.32
2022-12-13T20:24:56.251Z,14.32
2022-12-13T20:27:22.926Z,10.40
2022-12-13T20:29:50.160Z,10.52
2022-12-13T20:32:17.223Z,12.35
2022-12-13T20:34:43.928Z,9.63
2022-12-13T20:37:10.577Z,9.57
2022-12-13T20:39:37.238Z,12.65
2022-12-13T20:42:04.009Z,10.38
2022-12-13T20:44:30.701Z,10.07
2022-12-13T20:46:57.559Z,10.15
2022-12-13T20:49:24.223Z,10.25
2022-12-13T20:51:50.931Z,11.27
2022-12-13T20:54:17.780Z,8.90
2022-12-13T20:56:44.424Z,9.38
2022-12-13T20:59:12.819Z,9.80
2022-12-13T21:01:40.886Z,10.15
2022-12-13T21:04:09.169Z,9.45
2022-12-13T21:06:37.715Z,10.15
2022-12-13T21:09:05.151Z,9.13
2022-12-13T21:11:40.359Z,9.13
2022-12-13T21:14:20.742Z,9.45
2022-12-13T21:16:50.512Z,11.00
2022-12-13T21:19:19.522Z,11.63
2022-12-13T21:21:47.341Z,9.75
2022-12-13T21:24:15.622Z,10.88
2022-12-13T21:26:42.597Z,10.02
2022-12-13T21:29:11.023Z,11.65
2022-12-13T21:31:38.478Z,10.05
2022-12-13T21:34:06.440Z,10.10
2022-12-13T21:36:35.530Z,9.23
2022-12-13T21:39:08.393Z,10.85
2022-12-13T21:41:34.998Z,9.48
2022-12-13T21:44:01.629Z,12.63
2022-12-13T21:46:47.824Z,10.13
2022-12-13T21:49:16.073Z,11.73
2022-12-13T21:51:47.562Z,12.43
2022-12-13T21:54:14.927Z,10.98
2022-12-13T21:57:00.169Z,10.63
2022-12-13T22:02:14.632Z,12.13
2022-12-13T22:04:51.518Z,13.95
2022-12-13T22:07:19.360Z,10.75
2022-12-13T22:09:46.610Z,10.15
2022-12-13T22:12:22.400Z,9.90
2022-12-13T22:14:49.394Z,10.05
2022-12-13T22:17:16.159Z,9.95
2022-12-13T22:19:42.795Z,10.57
2022-12-13T22:22:14.937Z,11.63
2022-12-13T22:24:41.644Z,11.13
2022-12-13T22:27:08.253Z,9.88
2022-12-13T22:29:34.866Z,10.65
2022-12-13T22:32:01.750Z,12.52
2022-12-13T22:34:28.391Z,9.50
2022-12-13T22:36:55.054Z,10.65
2022-12-13T22:39:22.941Z,10.55
2022-12-13T22:41:51.237Z,9.73
2022-12-13T22:44:20.484Z,9.48
2022-12-13T22:46:47.712Z,11.95
2022-12-13T22:49:14.533Z,11.27
2022-12-13T22:51:41.281Z,11.38
2022-12-13T22:54:08.167Z,9.70
2022-12-13T22:56:35.150Z,9.25
2022-12-13T22:59:03.437Z,10.63
2022-12-13T23:01:32.147Z,10.43
2022-12-13T23:03:59.866Z,9.27
2022-12-13T23:06:30.983Z,8.93
2022-12-13T23:09:02.119Z,9.88
2022-12-13T23:11:48.484Z,10.60
2022-12-13T23:14:20.732Z,8.80
2022-12-13T23:16:49.718Z,10.27
2022-12-13T23:19:40.906Z,10.32
2022-12-13T23:22:05.214Z,11.00
2022-12-13T23:24:31.805Z,9.30
2022-12-13T23:26:58.444Z,8.93
2022-12-13T23:29:25.088Z,9.25
2022-12-13T23:31:51.687Z,7.85
2022-12-13T23:34:18.256Z,9.90
2022-12-13T23:36:44.904Z,7.07
2022-12-13T23:39:11.735Z,9.02
2022-12-13T23:41:38.601Z,7.97
2022-12-13T23:44:05.591Z,8.63
2022-12-13T23:46:34.793Z,7.03
2022-12-13T23:49:02.817Z,9.05
2022-12-13T23:51:29.497Z,9.95
2022-12-13T23:53:56.337Z,8.38
2022-12-13T23:56:23.751Z,7.88
2022-12-13T23:58:50.773Z,7.70
